createdAt,value
2023-04-06T00:00:43.183Z,47.00
2023-04-06T00:01:43.268Z,46.39
2023-04-06T00:02:43.951Z,60.69
2023-04-06T00:03:43.215Z,50.84
2023-04-06T00:04:43.140Z,50.56
2023-04-06T00:05:43.163Z,50.28
2023-04-06T00:06:43.191Z,53.86
2023-04-06T00:07:43.116Z,52.81
2023-04-06T00:08:43.135Z,45.24
2023-04-06T00:09:43.103Z,55.47
2023-04-06T00:10:43.136Z,49.96
2023-04-06T00:11:43.185Z,45.45
2023-04-06T00:12:43.079Z,44.74
2023-04-06T00:13:43.085Z,46.82
2023-04-06T00:14:43.059Z,47.83
2023-04-06T00:15:43.062Z,55.02
2023-04-06T00:16:43.104Z,51.72
2023-04-06T00:17:43.145Z,50.07
2023-04-06T00:18:43.024Z,52.94
2023-04-06T00:19:44.043Z,54.46
2023-04-06T00:20:43.048Z,54.92
2023-04-06T00:21:43.062Z,53.11
2023-04-06T00:22:43.030Z,50.42
2023-04-06T00:23:43.033Z,45.03
2023-04-06T00:24:43.209Z,54.84
2023-04-06T00:25:42.991Z,52.02
2023-04-06T00:26:43.013Z,60.84
2023-04-06T00:27:42.977Z,57.25
2023-04-06T00:28:42.974Z,48.24
2023-04-06T00:29:42.959Z,51.04
2023-04-06T00:30:43.093Z,51.14
2023-04-06T00:31:42.976Z,50.58
2023-04-06T00:32:42.998Z,52.02
2023-04-06T00:33:42.980Z,45.20
2023-04-06T00:34:42.918Z,49.88
2023-04-06T00:35:42.968Z,45.05
2023-04-06T00:36:44.040Z,44.12
2023-04-06T00:37:42.906Z,49.26
2023-04-06T00:38:42.890Z,52.63
2023-04-06T00:39:42.873Z,51.39
2023-04-06T00:40:42.857Z,44.04
2023-04-06T00:41:42.878Z,44.26
2023-04-06T00:42:42.861Z,53.32
2023-04-06T00:43:42.891Z,51.41
2023-04-06T00:44:42.848Z,43.94
2023-04-06T00:45:42.866Z,50.27
2023-04-06T00:46:42.839Z,43.77
2023-04-06T00:47:42.859Z,43.57
2023-04-06T00:48:42.826Z,43.85
2023-04-06T00:49:42.826Z,44.84
2023-04-06T00:50:42.806Z,44.83
2023-04-06T00:51:42.790Z,49.03
2023-04-06T00:52:43.385Z,49.01
2023-04-06T00:53:42.787Z,49.85
2023-04-06T00:54:42.809Z,49.37
2023-04-06T00:55:42.775Z,44.09
2023-04-06T00:56:42.752Z,58.43
2023-04-06T00:57:42.780Z,44.27
2023-04-06T00:58:42.778Z,53.33
2023-04-06T00:59:42.808Z,46.95
2023-04-06T01:00:43.723Z,46.23
2023-04-06T01:01:42.821Z,47.08
2023-04-06T01:02:42.771Z,53.25
2023-04-06T01:03:42.712Z,50.07
2023-04-06T01:04:42.766Z,43.68
2023-04-06T01:05:42.744Z,43.80
2023-04-06T01:06:42.689Z,49.39
2023-04-06T01:07:42.685Z,55.08
2023-04-06T01:08:42.685Z,50.40
2023-04-06T01:09:42.672Z,50.35
2023-04-06T01:10:42.768Z,44.19
2023-04-06T01:11:42.676Z,48.70
2023-04-06T01:12:42.638Z,49.79
2023-04-06T01:13:42.619Z,48.96
2023-04-06T01:14:42.626Z,49.16
2023-04-06T01:15:43.506Z,44.23
2023-04-06T01:16:42.667Z,43.99
2023-04-06T01:17:42.643Z,43.74
2023-04-06T01:18:42.619Z,52.47
2023-04-06T01:19:42.590Z,44.28
2023-04-06T01:20:43.390Z,44.35
2023-04-06T01:21:42.596Z,44.02
2023-04-06T01:22:42.582Z,49.38
2023-04-06T01:23:42.598Z,43.36
2023-04-06T01:24:42.550Z,51.89
2023-04-06T01:25:42.536Z,43.51
2023-04-06T01:26:42.532Z,43.65
2023-04-06T01:27:42.610Z,48.08
2023-04-06T01:28:42.526Z,47.68
2023-04-06T01:29:42.671Z,43.84
2023-04-06T01:30:42.489Z,43.36
2023-04-06T01:31:42.537Z,50.01
2023-04-06T01:32:42.617Z,45.88
2023-04-06T01:33:42.526Z,47.15
2023-04-06T01:34:42.489Z,48.70
2023-04-06T01:35:42.552Z,44.04
2023-04-06T01:36:42.486Z,44.77
2023-04-06T01:37:42.603Z,54.07
2023-04-06T01:38:43.352Z,44.03
2023-04-06T01:39:43.439Z,49.26
2023-04-06T01:40:42.435Z,43.57
2023-04-06T01:41:42.441Z,43.89
2023-04-06T01:42:42.418Z,43.34
2023-04-06T01:43:42.496Z,49.53
2023-04-06T01:44:42.446Z,46.82
2023-04-06T01:45:42.397Z,43.61
2023-04-06T01:46:42.455Z,43.25
2023-04-06T01:47:42.466Z,43.17
2023-04-06T01:48:42.359Z,43.25
2023-04-06T01:49:42.362Z,43.95
2023-04-06T01:50:42.364Z,43.38
2023-04-06T01:51:42.372Z,43.72
2023-04-06T01:52:42.384Z,46.45
2023-04-06T01:53:42.381Z,47.11
2023-04-06T01:54:43.326Z,47.46
2023-04-06T01:55:42.878Z,44.58
2023-04-06T01:56:42.308Z,48.69
2023-04-06T01:57:42.309Z,43.79
2023-04-06T01:58:42.329Z,50.65
2023-04-06T01:59:42.415Z,49.75
2023-04-06T02:00:43.024Z,43.82
2023-04-06T02:01:42.418Z,49.90
2023-04-06T02:02:42.345Z,43.24
2023-04-06T02:03:42.257Z,45.07
2023-04-06T02:04:42.296Z,53.86
2023-04-06T02:05:42.375Z,50.21
2023-04-06T02:06:42.242Z,46.03
2023-04-06T02:07:42.227Z,50.41
2023-04-06T02:08:42.211Z,43.78
2023-04-06T02:09:42.276Z,55.57
2023-04-06T02:10:42.224Z,50.10
2023-04-06T02:11:42.954Z,43.87
2023-04-06T02:12:42.211Z,43.48
2023-04-06T02:13:42.173Z,52.99
2023-04-06T02:14:42.227Z,50.48
2023-04-06T02:15:42.194Z,50.38
2023-04-06T02:16:42.189Z,43.98
2023-04-06T02:17:42.188Z,43.58
2023-04-06T02:18:42.963Z,48.80
2023-04-06T02:19:42.173Z,45.49
2023-04-06T02:20:42.216Z,46.71
2023-04-06T02:21:42.140Z,43.22
2023-04-06T02:22:42.114Z,44.45
2023-04-06T02:23:42.172Z,54.99
2023-04-06T02:24:42.103Z,43.03
2023-04-06T02:25:42.154Z,48.86
2023-04-06T02:26:42.172Z,43.97
2023-04-06T02:27:42.069Z,51.93
2023-04-06T02:28:42.135Z,57.49
2023-04-06T02:29:42.067Z,45.49
2023-04-06T02:30:42.053Z,43.32
2023-04-06T02:31:42.137Z,53.41
2023-04-06T02:32:42.094Z,50.14
2023-04-06T02:33:42.218Z,51.63
2023-04-06T02:34:42.064Z,48.05
2023-04-06T02:35:42.036Z,48.40
2023-04-06T02:36:42.079Z,57.58
2023-04-06T02:37:42.054Z,43.80
2023-04-06T02:38:41.996Z,43.55
2023-04-06T02:39:42.947Z,43.66
2023-04-06T02:40:42.986Z,51.46
2023-04-06T02:41:41.975Z,48.72
2023-04-06T02:42:41.955Z,48.82
2023-04-06T02:43:41.979Z,49.60
2023-04-06T02:44:42.888Z,51.66
2023-04-06T02:45:41.983Z,52.56
2023-04-06T02:46:42.058Z,43.51
2023-04-06T02:47:41.968Z,43.46
2023-04-06T02:48:41.932Z,44.10
2023-04-06T02:49:41.915Z,52.32
2023-04-06T02:50:41.901Z,55.52
2023-04-06T02:51:41.973Z,56.49
2023-04-06T02:52:41.935Z,46.39
2023-04-06T02:53:41.886Z,48.36
2023-04-06T02:54:41.897Z,46.29
2023-04-06T02:55:41.895Z,53.36
2023-04-06T02:56:41.853Z,53.26
2023-04-06T02:57:42.017Z,53.40
2023-04-06T02:58:41.860Z,45.23
2023-04-06T02:59:41.893Z,50.82
2023-04-06T03:00:41.830Z,48.13
2023-04-06T03:01:42.459Z,55.90
2023-04-06T03:02:41.907Z,51.69
2023-04-06T03:03:41.992Z,55.83
2023-04-06T03:04:41.816Z,48.82
2023-04-06T03:05:41.809Z,47.40
2023-04-06T03:06:41.794Z,53.68
2023-04-06T03:07:42.464Z,65.39
2023-04-06T03:08:41.776Z,51.61
2023-04-06T03:09:41.857Z,58.05
2023-04-06T03:10:41.796Z,58.80
2023-04-06T03:11:41.776Z,49.71
2023-04-06T03:12:42.861Z,47.27
2023-04-06T03:13:42.767Z,56.25
2023-04-06T03:14:41.839Z,59.50
2023-04-06T03:15:41.839Z,61.66
2023-04-06T03:16:41.745Z,61.33
2023-04-06T03:17:41.734Z,51.27
2023-04-06T03:18:41.696Z,55.65
2023-04-06T03:19:41.696Z,60.27
2023-04-06T03:20:41.735Z,54.90
2023-04-06T03:21:41.687Z,51.29
2023-04-06T03:22:41.673Z,48.07
2023-04-06T03:23:41.655Z,59.96
2023-04-06T03:24:42.506Z,50.89
2023-04-06T03:25:41.690Z,56.45
2023-04-06T03:26:41.646Z,52.39
2023-04-06T03:27:41.624Z,58.42
2023-04-06T03:28:41.645Z,63.07
2023-04-06T03:29:42.295Z,62.12
2023-04-06T03:30:41.604Z,61.66
2023-04-06T03:31:41.724Z,62.63
2023-04-06T03:32:41.631Z,60.18
2023-04-06T03:33:41.584Z,54.66
2023-04-06T03:34:41.561Z,63.30
2023-04-06T03:35:42.540Z,59.11
2023-04-06T03:36:42.049Z,62.23
2023-04-06T03:37:41.555Z,63.03
2023-04-06T03:39:14.399Z,63.52
2023-04-06T03:39:41.542Z,63.48
2023-04-06T03:40:41.635Z,57.16
2023-04-06T03:41:42.058Z,64.78
2023-04-06T03:42:41.793Z,64.21
2023-04-06T03:43:41.510Z,59.56
2023-04-06T03:44:41.551Z,65.12
2023-04-06T03:45:41.693Z,67.65
2023-04-06T03:46:41.561Z,64.44
2023-04-06T04:03:53.471Z,62.64
2023-04-06T04:04:53.317Z,61.82
2023-04-06T04:05:54.422Z,62.16
2023-04-06T04:06:54.491Z,56.39
2023-04-06T04:07:54.431Z,64.95
2023-04-06T04:08:54.362Z,64.65
2023-04-06T04:09:54.385Z,65.56
2023-04-06T04:10:55.011Z,52.86
2023-04-06T04:11:54.326Z,65.24
2023-04-06T04:12:54.304Z,66.79
2023-04-06T04:13:54.417Z,61.06
2023-04-06T04:14:54.317Z,70.17
2023-04-06T04:15:55.454Z,67.46
2023-04-06T04:16:54.421Z,63.57
2023-04-06T04:17:54.339Z,66.55
2023-04-06T04:18:54.271Z,66.53
2023-04-06T04:19:54.467Z,65.76
2023-04-06T04:20:55.000Z,57.04
2023-04-06T04:21:54.306Z,60.43
2023-04-06T04:22:54.312Z,64.90
2023-04-06T04:23:54.393Z,60.31
2023-04-06T04:24:54.224Z,66.77
2023-04-06T04:25:54.403Z,65.77
2023-04-06T04:26:54.237Z,70.23
2023-04-06T04:27:54.217Z,67.25
2023-04-06T04:28:54.252Z,64.19
2023-04-06T04:29:54.258Z,68.24
2023-04-06T04:30:54.538Z,67.02
2023-04-06T04:31:54.298Z,68.94
2023-04-06T04:32:54.219Z,68.03
2023-04-06T04:33:54.184Z,71.01
2023-04-06T04:34:54.163Z,65.47
2023-04-06T04:35:54.222Z,63.53
2023-04-06T04:36:54.207Z,62.68
2023-04-06T04:37:54.144Z,70.01
2023-04-06T04:38:54.995Z,67.48
2023-04-06T04:39:54.151Z,65.43
2023-04-06T04:40:54.109Z,62.44
2023-04-06T04:41:54.161Z,69.68
2023-04-06T04:42:54.174Z,70.88
2023-04-06T04:43:54.853Z,71.70
2023-04-06T04:44:54.094Z,66.40
2023-04-06T04:45:54.128Z,71.93
2023-04-06T04:46:54.142Z,69.10
2023-04-06T04:47:54.234Z,67.81
2023-04-06T04:48:54.218Z,66.69
2023-04-06T04:49:54.074Z,62.99
2023-04-06T04:50:54.066Z,66.57
2023-04-06T04:51:54.041Z,70.45
2023-04-06T04:52:55.154Z,71.33
2023-04-06T04:53:54.283Z,69.11
2023-04-06T04:54:54.082Z,66.99
2023-04-06T04:55:54.104Z,64.85
2023-04-06T04:56:54.055Z,68.06
2023-04-06T04:57:54.101Z,67.11
2023-04-06T04:58:54.134Z,61.96
2023-04-06T04:59:54.913Z,65.90
2023-04-06T05:00:54.889Z,67.01
2023-04-06T05:01:55.262Z,63.99
2023-04-06T05:02:55.048Z,56.73
2023-04-06T05:03:54.082Z,65.13
2023-04-06T05:04:53.980Z,69.72
2023-04-06T05:05:53.958Z,61.81
2023-04-06T05:06:54.026Z,65.19
2023-04-06T05:07:53.964Z,65.84
2023-04-06T05:08:53.945Z,70.16
2023-04-06T05:09:53.936Z,66.91
2023-04-06T05:10:54.449Z,64.12
2023-04-06T05:11:54.852Z,69.71
2023-04-06T05:12:53.905Z,73.03
2023-04-06T05:13:53.920Z,57.13
2023-04-06T05:14:53.912Z,74.26
2023-04-06T05:15:54.099Z,68.52
2023-04-06T05:16:53.884Z,67.44
2023-04-06T05:17:53.992Z,68.68
2023-04-06T05:18:53.890Z,69.28
2023-04-06T05:19:53.881Z,72.78
2023-04-06T05:20:53.874Z,69.04
2023-04-06T05:21:54.464Z,72.44
2023-04-06T05:22:53.848Z,66.37
2023-04-06T05:23:53.829Z,69.64
2023-04-06T05:24:53.827Z,67.21
2023-04-06T05:25:53.861Z,72.54
2023-04-06T05:26:54.784Z,66.36
2023-04-06T05:27:53.813Z,68.07
2023-04-06T05:28:53.799Z,64.56
2023-04-06T05:29:55.038Z,72.48
2023-04-06T05:30:53.862Z,74.09
2023-04-06T05:31:53.788Z,72.94
2023-04-06T05:32:53.821Z,70.31
2023-04-06T05:33:53.780Z,68.31
2023-04-06T05:34:53.757Z,66.49
2023-04-06T05:35:53.816Z,69.54
2023-04-06T05:36:53.742Z,68.68
2023-04-06T05:37:53.761Z,69.50
2023-04-06T05:38:54.440Z,73.62
2023-04-06T05:39:54.806Z,69.63
2023-04-06T05:40:53.857Z,72.24
2023-04-06T05:41:53.725Z,68.95
2023-04-06T05:42:53.683Z,71.59
2023-04-06T05:43:53.750Z,71.36
2023-04-06T05:44:53.708Z,59.23
2023-04-06T05:45:53.637Z,70.85
2023-04-06T05:46:53.839Z,72.00
2023-04-06T05:47:53.741Z,69.33
2023-04-06T05:48:53.623Z,69.79
2023-04-06T05:49:54.628Z,66.26
2023-04-06T05:50:53.645Z,70.52
2023-04-06T05:51:53.668Z,69.14
2023-04-06T05:52:53.640Z,68.55
2023-04-06T05:53:53.699Z,70.50
2023-04-06T05:54:54.779Z,67.00
2023-04-06T05:55:53.650Z,66.12
2023-04-06T05:56:53.583Z,66.59
2023-04-06T05:57:53.679Z,65.78
2023-04-06T05:58:53.607Z,72.30
2023-04-06T05:59:53.580Z,71.95
2023-04-06T06:00:55.328Z,64.69
2023-04-06T06:01:53.570Z,67.96
2023-04-06T06:02:53.641Z,66.52
2023-04-06T06:03:53.509Z,72.47
2023-04-06T06:04:53.571Z,63.62
2023-04-06T06:05:53.511Z,67.77
2023-04-06T06:06:54.460Z,63.95
2023-04-06T06:07:53.534Z,69.65
2023-04-06T06:08:53.507Z,71.36
2023-04-06T06:09:53.514Z,70.33
2023-04-06T06:10:53.469Z,66.63
2023-04-06T06:11:54.518Z,67.37
2023-04-06T06:12:53.511Z,70.42
2023-04-06T06:13:53.486Z,67.45
2023-04-06T06:14:53.541Z,66.52
2023-04-06T06:15:53.459Z,70.97
2023-04-06T06:16:54.793Z,64.89
2023-04-06T06:17:53.991Z,62.38
2023-04-06T06:18:53.431Z,67.01
2023-04-06T06:19:53.474Z,68.85
2023-04-06T06:20:53.501Z,56.66
2023-04-06T06:21:53.471Z,70.30
2023-04-06T06:22:54.286Z,60.30
2023-04-06T06:23:53.438Z,65.94
2023-04-06T06:24:53.428Z,67.24
2023-04-06T06:25:53.413Z,69.03
2023-04-06T06:26:53.359Z,67.60
2023-04-06T06:27:53.337Z,66.22
2023-04-06T06:28:53.343Z,66.66
2023-04-06T06:29:53.424Z,68.14
2023-04-06T06:30:53.463Z,61.29
2023-04-06T06:31:53.380Z,66.06
2023-04-06T06:32:53.562Z,67.29
2023-04-06T06:33:53.348Z,66.67
2023-04-06T06:34:53.279Z,64.98
2023-04-06T06:35:53.379Z,71.92
2023-04-06T06:36:53.321Z,66.21
2023-04-06T06:37:53.369Z,68.86
2023-04-06T06:38:53.249Z,64.24
2023-04-06T06:39:53.299Z,66.36
2023-04-06T06:40:53.284Z,64.28
2023-04-06T06:41:53.274Z,67.46
2023-04-06T06:42:53.249Z,71.00
2023-04-06T06:43:53.325Z,68.05
2023-04-06T06:44:53.255Z,61.11
2023-04-06T06:45:53.742Z,69.53
2023-04-06T06:46:53.199Z,67.38
2023-04-06T06:47:55.296Z,69.95
2023-04-06T06:48:54.252Z,65.49
2023-04-06T06:49:53.164Z,64.43
2023-04-06T06:50:53.662Z,67.99
2023-04-06T06:51:53.236Z,66.65
2023-04-06T06:52:53.215Z,66.04
2023-04-06T06:53:53.151Z,69.08
2023-04-06T06:54:54.387Z,67.20
2023-04-06T06:55:53.128Z,63.98
2023-04-06T06:56:53.110Z,67.07
2023-04-06T06:57:53.155Z,64.90
2023-04-06T06:58:53.202Z,65.16
2023-04-06T06:59:53.182Z,65.13
2023-04-06T07:00:53.138Z,70.30
2023-04-06T07:01:53.087Z,63.93
2023-04-06T07:02:53.208Z,59.69
2023-04-06T07:03:54.134Z,69.13
2023-04-06T07:04:53.136Z,68.65
2023-04-06T07:05:53.043Z,68.47
2023-04-06T07:06:53.050Z,67.76
2023-04-06T07:07:53.230Z,67.35
2023-04-06T07:08:54.037Z,60.82
2023-04-06T07:09:53.020Z,71.38
2023-04-06T07:10:53.945Z,68.88
2023-04-06T07:11:53.003Z,64.71
2023-04-06T07:12:53.009Z,61.70
2023-04-06T07:13:54.003Z,69.80
2023-04-06T07:14:53.014Z,62.94
2023-04-06T07:15:52.979Z,67.73
2023-04-06T07:16:52.998Z,67.27
2023-04-06T07:17:53.022Z,68.36
2023-04-06T07:18:52.979Z,62.22
2023-04-06T07:19:52.992Z,68.78
2023-04-06T07:20:52.938Z,64.64
2023-04-06T07:21:53.136Z,66.03
2023-04-06T07:22:52.924Z,67.39
2023-04-06T07:23:52.913Z,68.42
2023-04-06T07:24:52.919Z,67.63
2023-04-06T07:25:52.906Z,67.99
2023-04-06T07:26:53.470Z,61.90
2023-04-06T07:27:52.870Z,66.41
2023-04-06T07:28:53.002Z,67.60
2023-04-06T07:29:52.898Z,66.30
2023-04-06T07:30:54.494Z,62.79
2023-04-06T07:31:52.977Z,66.17
2023-04-06T07:32:52.902Z,67.94
2023-04-06T07:33:52.821Z,70.26
2023-04-06T07:34:52.870Z,64.00
2023-04-06T07:35:52.912Z,65.28
2023-04-06T07:36:52.798Z,63.07
2023-04-06T07:37:52.818Z,67.01
2023-04-06T07:38:52.817Z,62.08
2023-04-06T07:39:52.818Z,67.96
2023-04-06T07:40:52.839Z,64.87
2023-04-06T07:41:52.899Z,62.01
2023-04-06T07:42:52.817Z,62.56
2023-04-06T07:43:52.779Z,68.67
2023-04-06T07:44:52.802Z,65.45
2023-04-06T07:45:52.858Z,67.84
2023-04-06T07:46:52.764Z,69.47
2023-04-06T07:47:52.814Z,67.51
2023-04-06T07:48:52.850Z,66.97
2023-04-06T07:49:52.694Z,66.89
2023-04-06T07:50:52.718Z,68.40
2023-04-06T07:51:52.750Z,67.19
2023-04-06T07:52:52.712Z,68.91
2023-04-06T07:53:52.689Z,66.30
2023-04-06T07:54:53.484Z,66.14
2023-04-06T07:55:52.731Z,67.69
2023-04-06T07:56:52.678Z,66.09
2023-04-06T07:57:53.831Z,64.58
2023-04-06T07:58:54.364Z,66.03
2023-04-06T08:00:27.526Z,71.15
2023-04-06T08:00:52.628Z,69.62
2023-04-06T08:01:53.766Z,58.60
2023-04-06T08:02:52.713Z,66.61
2023-04-06T08:03:53.505Z,64.28
2023-04-06T08:04:53.525Z,63.80
2023-04-06T08:05:52.657Z,65.54
2023-04-06T08:06:52.584Z,60.27
2023-04-06T08:07:52.655Z,63.52
2023-04-06T08:08:54.262Z,66.04
2023-04-06T08:09:53.460Z,66.40
2023-04-06T08:10:52.601Z,57.92
2023-04-06T08:11:52.637Z,67.81
2023-04-06T08:12:52.627Z,67.74
2023-04-06T08:13:52.564Z,66.93
2023-04-06T08:14:52.589Z,66.07
2023-04-06T08:15:52.598Z,65.28
2023-04-06T08:16:52.600Z,66.39
2023-04-06T08:17:52.564Z,64.96
2023-04-06T08:18:52.516Z,66.08
2023-04-06T08:19:52.519Z,66.39
2023-04-06T08:20:52.584Z,64.82
2023-04-06T08:21:52.502Z,66.71
2023-04-06T08:22:53.772Z,65.97
2023-04-06T08:23:53.460Z,66.36
2023-04-06T08:24:52.500Z,68.42
2023-04-06T08:25:52.433Z,64.26
2023-04-06T08:26:53.168Z,67.71
2023-04-06T08:27:52.481Z,69.77
2023-04-06T08:28:52.459Z,63.56
2023-04-06T08:29:53.890Z,64.16
2023-04-06T08:30:52.493Z,62.52
2023-04-06T08:31:52.438Z,70.97
2023-04-06T08:32:53.116Z,61.73
2023-04-06T08:33:52.422Z,69.49
2023-04-06T08:34:52.411Z,62.75
2023-04-06T08:35:52.446Z,65.71
2023-04-06T08:36:52.372Z,67.86
2023-04-06T08:37:52.429Z,66.79
2023-04-06T08:38:53.397Z,69.46
2023-04-06T08:39:52.390Z,68.94
2023-04-06T08:40:52.386Z,59.91
2023-04-06T08:41:52.325Z,64.35
2023-04-06T08:42:52.374Z,62.37
2023-04-06T08:43:52.350Z,69.30
2023-04-06T08:44:52.566Z,61.35
2023-04-06T08:45:52.363Z,61.25
2023-04-06T08:46:52.427Z,62.29
2023-04-06T08:47:52.335Z,70.76
2023-04-06T08:48:52.268Z,62.33
2023-04-06T08:50:24.978Z,66.23
2023-04-06T08:50:53.147Z,69.46
2023-04-06T08:52:26.033Z,64.88
2023-04-06T08:53:26.609Z,64.52
2023-04-06T08:53:52.211Z,68.25
2023-04-06T08:54:52.684Z,66.98
2023-04-06T08:55:52.771Z,68.66
2023-04-06T08:56:53.628Z,63.98
2023-04-06T08:57:52.230Z,63.98
2023-04-06T08:58:54.540Z,61.64
2023-04-06T08:59:53.719Z,68.63
2023-04-06T09:00:53.177Z,66.83
2023-04-06T09:01:52.313Z,66.17
2023-04-06T09:02:52.256Z,66.69
2023-04-06T09:03:53.159Z,68.56
2023-04-06T09:04:53.227Z,68.06
2023-04-06T09:05:53.999Z,60.98
2023-04-06T09:06:52.166Z,65.53
2023-04-06T09:07:52.672Z,63.18
2023-04-06T09:08:53.047Z,62.92
2023-04-06T09:09:52.159Z,67.99
2023-04-06T09:10:52.971Z,66.29
2023-04-06T09:11:53.473Z,68.07
2023-04-06T09:12:55.053Z,66.24
2023-04-06T09:13:52.245Z,62.26
2023-04-06T09:14:52.089Z,65.04
2023-04-06T09:15:52.110Z,66.31
2023-04-06T09:16:54.556Z,62.62
2023-04-06T09:18:52.767Z,61.52
2023-04-06T09:19:52.061Z,64.17
2023-04-06T09:20:52.957Z,67.21
2023-04-06T09:21:52.059Z,64.76
2023-04-06T09:22:52.738Z,65.69
2023-04-06T09:23:53.023Z,68.56
2023-04-06T09:24:52.716Z,64.45
2023-04-06T09:25:52.092Z,67.26
2023-04-06T09:26:51.949Z,62.87
2023-04-06T09:27:53.464Z,68.11
2023-04-06T09:28:52.674Z,64.47
2023-04-06T09:29:52.001Z,68.04
2023-04-06T09:30:51.950Z,66.46
2023-04-06T09:31:51.963Z,67.60
2023-04-06T09:32:52.045Z,69.36
2023-04-06T09:33:55.484Z,66.40
2023-04-06T09:34:52.934Z,67.11
2023-04-06T09:35:52.698Z,66.78
2023-04-06T09:36:51.975Z,61.21
2023-04-06T09:37:52.895Z,67.41
2023-04-06T09:39:23.826Z,63.88
2023-04-06T09:39:53.590Z,70.56
2023-04-06T09:41:00.681Z,66.24
2023-04-06T09:41:53.857Z,60.96
2023-04-06T09:42:51.826Z,68.34
2023-04-06T09:43:51.847Z,67.31
2023-04-06T09:44:51.855Z,68.79
2023-04-06T09:45:51.875Z,65.06
2023-04-06T09:47:00.280Z,62.21
2023-04-06T09:47:53.930Z,68.87
2023-04-06T09:48:51.786Z,68.20
2023-04-06T09:49:51.824Z,66.55
2023-04-06T09:50:51.812Z,63.90
2023-04-06T09:51:52.726Z,69.97
2023-04-06T09:52:51.847Z,61.30
2023-04-06T09:53:51.744Z,63.97
2023-04-06T09:54:51.750Z,65.88
2023-04-06T09:55:52.606Z,67.53
2023-04-06T09:56:51.798Z,61.32
2023-04-06T09:57:51.703Z,63.00
2023-04-06T09:58:51.690Z,63.19
2023-04-06T09:59:51.865Z,62.12
2023-04-06T10:00:54.295Z,64.39
2023-04-06T10:01:52.701Z,67.44
2023-04-06T10:02:51.878Z,68.92
2023-04-06T10:03:51.721Z,65.96
2023-04-06T10:04:51.640Z,66.18
2023-04-06T10:05:51.686Z,65.89
2023-04-06T10:06:52.604Z,66.55
2023-04-06T10:08:53.626Z,66.45
2023-04-06T10:09:51.620Z,66.93
2023-04-06T10:10:51.634Z,66.63
2023-04-06T10:11:51.607Z,69.20
2023-04-06T10:12:51.674Z,65.02
2023-04-06T10:13:51.621Z,65.84
2023-04-06T10:14:51.563Z,66.18
2023-04-06T10:15:51.606Z,68.35
2023-04-06T10:16:51.635Z,62.44
2023-04-06T10:17:51.656Z,66.16
2023-04-06T10:18:51.553Z,67.85
2023-04-06T10:19:51.657Z,62.30
2023-04-06T10:20:51.591Z,68.03
2023-04-06T10:21:51.532Z,62.79
2023-04-06T10:22:52.538Z,56.25
2023-04-06T10:23:51.620Z,64.97
2023-04-06T10:24:51.517Z,67.43
2023-04-06T10:25:51.517Z,65.88
2023-04-06T10:26:51.512Z,60.99
2023-04-06T10:27:51.539Z,67.86
2023-04-06T10:28:51.508Z,66.96
2023-04-06T10:29:51.510Z,65.90
2023-04-06T10:30:51.443Z,67.74
2023-04-06T10:31:51.500Z,57.11
2023-04-06T10:32:51.557Z,67.97
2023-04-06T10:33:51.448Z,69.73
2023-04-06T10:34:52.106Z,61.03
2023-04-06T10:35:51.483Z,65.99
2023-04-06T10:36:51.443Z,67.52
2023-04-06T10:37:51.460Z,69.65
2023-04-06T10:38:51.418Z,56.57
2023-04-06T10:39:51.416Z,65.03
2023-04-06T10:40:51.408Z,69.77
2023-04-06T10:41:52.127Z,66.92
2023-04-06T10:42:51.417Z,70.01
2023-04-06T10:43:51.420Z,66.13
2023-04-06T10:44:52.196Z,67.02
2023-04-06T10:45:51.389Z,69.64
2023-04-06T10:46:51.354Z,68.00
2023-04-06T10:47:51.376Z,67.31
2023-04-06T10:48:51.362Z,65.52
2023-04-06T10:49:51.347Z,65.91
2023-04-06T10:50:51.297Z,68.77
2023-04-06T10:51:51.436Z,60.46
2023-04-06T10:52:51.297Z,63.38
2023-04-06T10:53:51.360Z,67.09
2023-04-06T10:54:51.277Z,63.36
2023-04-06T10:55:51.313Z,62.34
2023-04-06T10:56:51.307Z,61.46
2023-04-06T10:57:51.317Z,68.33
2023-04-06T10:58:51.358Z,66.71
2023-04-06T10:59:51.334Z,68.53
2023-04-06T11:00:51.667Z,70.41
2023-04-06T11:01:51.322Z,64.96
2023-04-06T11:02:52.025Z,63.73
2023-04-06T11:03:51.289Z,66.92
2023-04-06T11:04:52.181Z,67.35
2023-04-06T11:05:51.255Z,66.90
2023-04-06T11:06:51.312Z,68.35
2023-04-06T11:07:51.217Z,65.00
2023-04-06T11:08:51.300Z,68.33
2023-04-06T11:10:04.573Z,70.13
2023-04-06T11:10:53.215Z,65.72
2023-04-06T11:11:51.171Z,63.16
2023-04-06T11:12:51.159Z,62.57
2023-04-06T11:13:51.183Z,65.88
2023-04-06T11:14:51.738Z,65.47
2023-04-06T11:15:51.754Z,64.29
2023-04-06T11:16:51.352Z,66.58
2023-04-06T11:17:51.168Z,65.32
2023-04-06T11:18:51.108Z,68.58
2023-04-06T11:19:52.024Z,62.28
2023-04-06T11:20:51.100Z,67.16
2023-04-06T11:21:51.123Z,66.10
2023-04-06T11:22:51.104Z,63.49
2023-04-06T11:23:51.060Z,66.35
2023-04-06T11:24:51.059Z,65.91
2023-04-06T11:25:51.707Z,64.47
2023-04-06T11:26:51.046Z,64.42
2023-04-06T11:27:51.036Z,69.82
2023-04-06T11:28:51.019Z,69.47
2023-04-06T11:29:51.028Z,67.37
2023-04-06T11:30:51.165Z,65.67
2023-04-06T11:31:51.011Z,69.24
2023-04-06T11:32:51.122Z,65.33
2023-04-06T11:33:51.010Z,67.82
2023-04-06T11:34:50.981Z,66.82
2023-04-06T11:35:51.327Z,70.53
2023-04-06T11:36:50.980Z,69.69
2023-04-06T11:37:50.999Z,69.26
2023-04-06T11:38:50.973Z,64.88
2023-04-06T11:39:50.928Z,68.63
2023-04-06T11:40:50.932Z,69.20
2023-04-06T11:41:51.021Z,66.19
2023-04-06T11:42:50.966Z,70.11
2023-04-06T11:43:50.958Z,68.01
2023-04-06T11:44:50.952Z,68.76
2023-04-06T11:45:50.900Z,65.58
2023-04-06T11:46:51.191Z,70.00
2023-04-06T11:47:51.627Z,63.57
2023-04-06T11:48:50.908Z,68.69
2023-04-06T11:49:50.899Z,61.78
2023-04-06T11:50:50.856Z,63.87
2023-04-06T11:51:50.889Z,65.62
2023-04-06T11:52:50.853Z,68.91
2023-04-06T11:53:51.719Z,65.94
2023-04-06T11:54:50.851Z,66.77
2023-04-06T11:55:50.874Z,69.13
2023-04-06T11:56:51.829Z,63.17
2023-04-06T11:57:50.818Z,68.95
2023-04-06T11:58:50.895Z,59.29
2023-04-06T11:59:50.833Z,68.17
2023-04-06T12:00:50.887Z,68.62
2023-04-06T12:01:50.838Z,67.91
2023-04-06T12:02:50.860Z,66.29
2023-04-06T12:03:50.906Z,70.97
2023-04-06T12:04:50.784Z,68.46
2023-04-06T12:05:51.146Z,69.75
2023-04-06T12:06:50.815Z,64.36
2023-04-06T12:07:50.765Z,68.20
2023-04-06T12:08:50.746Z,67.18
2023-04-06T12:09:50.707Z,65.20
2023-04-06T12:10:51.221Z,64.22
2023-04-06T12:11:50.798Z,71.29
2023-04-06T12:12:50.715Z,67.15
2023-04-06T12:13:50.715Z,66.58
2023-04-06T12:14:50.683Z,68.05
2023-04-06T12:15:51.542Z,62.46
2023-04-06T12:16:50.656Z,69.26
2023-04-06T12:17:50.698Z,67.48
2023-04-06T12:18:50.687Z,65.18
2023-04-06T12:19:50.664Z,68.39
2023-04-06T12:20:51.237Z,68.12
2023-04-06T12:21:50.670Z,66.35
2023-04-06T12:22:50.608Z,64.18
2023-04-06T12:23:50.644Z,63.82
2023-04-06T12:24:50.612Z,68.32
2023-04-06T12:25:50.632Z,66.59
2023-04-06T12:26:54.077Z,67.42
2023-04-06T12:27:51.637Z,67.98
2023-04-06T12:28:51.609Z,67.90
2023-04-06T12:29:50.652Z,68.92
2023-04-06T12:30:50.573Z,67.92
2023-04-06T12:31:50.802Z,65.01
2023-04-06T12:32:51.397Z,70.32
2023-04-06T12:33:51.697Z,63.65
2023-04-06T12:34:50.556Z,68.56
2023-04-06T12:35:50.544Z,68.24
2023-04-06T12:36:50.554Z,68.65
2023-04-06T12:37:50.517Z,65.75
2023-04-06T12:38:50.538Z,65.27
2023-04-06T12:39:50.495Z,68.77
2023-04-06T12:40:50.513Z,68.65
2023-04-06T12:41:50.527Z,69.81
2023-04-06T12:42:50.449Z,64.86
2023-04-06T12:43:51.059Z,66.91
2023-04-06T12:44:50.511Z,70.64
2023-04-06T12:45:51.520Z,68.68
2023-04-06T12:46:50.547Z,66.76
2023-04-06T12:47:50.462Z,70.46
2023-04-06T12:48:50.419Z,71.34
2023-04-06T12:49:50.413Z,66.84
2023-04-06T12:50:50.389Z,67.07
2023-04-06T12:51:50.413Z,65.20
2023-04-06T12:52:51.250Z,67.13
2023-04-06T12:53:50.404Z,66.90
2023-04-06T12:54:51.489Z,66.47
2023-04-06T12:55:50.399Z,68.12
2023-04-06T12:56:51.268Z,64.49
2023-04-06T12:57:50.375Z,63.50
2023-04-06T12:58:50.428Z,69.14
2023-04-06T12:59:50.394Z,63.36
2023-04-06T13:00:50.396Z,64.61
2023-04-06T13:01:51.705Z,68.98
2023-04-06T13:02:50.551Z,70.11
2023-04-06T13:03:50.333Z,66.23
2023-04-06T13:04:50.287Z,68.71
2023-04-06T13:05:50.298Z,66.79
2023-04-06T13:06:51.220Z,68.74
2023-04-06T13:07:50.291Z,67.73
2023-04-06T13:08:50.289Z,64.81
2023-04-06T13:09:50.281Z,67.70
2023-04-06T13:10:50.264Z,70.55